Time;durP1;ratioP1;P1;durP2;ratioP2;P2;SDS_P1;SDS_P2;PMS_P1;PMS_P2;Temp;Humidity;BMP_temperature;BMP_pressure;BME280_temperature;BME280_humidity;BME280_pressure;Samples;Min_cycle;Max_cycle;Signal;HPM_P1;HPM_P2
2022/10/23 00:01:43;;;;;;;18.13;11.53;;;;;;;12.02;66.43;100344.77;1757694;81;21129;-77
2022/10/23 00:04:19;;;;;;;17.20;11.90;;;;;;;12.05;66.49;100343.69;1769883;80;21411;-78
2022/10/23 00:06:46;;;;;;;21.27;12.13;;;;;;;12.09;66.53;100339.39;1776512;80;21259;-78
2022/10/23 00:09:17;;;;;;;16.70;12.20;;;;;;;12.14;66.55;100338.05;1775177;80;21231;-78
2022/10/23 00:11:46;;;;;;;18.07;12.53;;;;;;;12.19;66.52;100337.22;1759944;80;21685;-78
2022/10/23 00:14:13;;;;;;;14.95;11.73;;;;;;;12.23;66.50;100334.25;1770588;80;21330;-78
2022/10/23 00:16:40;;;;;;;15.80;12.30;;;;;;;12.26;66.43;100332.91;1782815;80;21063;-78
2022/10/23 00:19:08;;;;;;;18.17;13.27;;;;;;;12.28;66.40;100335.59;1739952;81;21221;-78
2022/10/23 00:21:35;;;;;;;18.40;13.37;;;;;;;12.32;66.33;100341.20;1751018;80;21440;-77
2022/10/23 00:24:02;;;;;;;18.67;13.67;;;;;;;12.35;66.32;100341.99;1738038;82;21123;-75
2022/10/23 00:26:29;;;;;;;19.67;13.30;;;;;;;12.35;66.30;100337.43;1752900;81;21835;-76
2022/10/23 00:28:56;;;;;;;19.00;13.70;;;;;;;12.34;66.24;100341.70;1744108;81;21048;-77
2022/10/23 00:31:24;;;;;;;20.80;13.90;;;;;;;12.29;66.21;100341.74;1746309;81;21519;-76
2022/10/23 00:33:51;;;;;;;19.70;14.33;;;;;;;12.26;66.24;100337.73;1747897;81;21035;-76
2022/10/23 00:36:19;;;;;;;19.70;13.73;;;;;;;12.24;66.32;100340.41;1786901;80;21564;-76
2022/10/23 00:38:46;;;;;;;20.40;13.87;;;;;;;12.22;66.35;100338.02;1759449;80;21295;-76
2022/10/23 00:41:31;;;;;;;18.62;13.08;;;;;;;12.23;66.38;100332.92;1778173;78;21282;-78
2022/10/23 00:44:07;;;;;;;;;;;;;;;12.23;66.43;100336.94;1740970;81;21308;-77
2022/10/23 00:46:35;;;;;;;18.60;14.35;;;;;;;12.26;66.44;100334.25;1772248;79;20162;-77
2022/10/23 00:49:03;;;;;;;19.60;13.80;;;;;;;12.26;66.47;100329.70;1525577;80;10000355;-77
2022/10/23 00:51:39;;;;;;;18.10;13.80;;;;;;;12.29;66.50;100332.37;1773516;80;21047;-77
2022/10/23 00:54:06;;;;;;;19.60;14.17;;;;;;;12.29;66.52;100326.47;1742877;81;21039;-76
2022/10/23 00:56:36;;;;;;;18.37;14.10;;;;;;;12.30;66.52;100323.25;1748228;81;21229;-77
2022/10/23 00:59:03;;;;;;;16.97;13.50;;;;;;;12.30;66.55;100325.93;1756471;81;21381;-77
2022/10/23 01:01:30;;;;;;;17.98;13.53;;;;;;;12.29;66.57;100317.09;1744921;81;21469;-77
2022/10/23 01:03:57;;;;;;;17.83;14.50;;;;;;;12.28;66.58;100319.52;1756501;81;22197;-77
2022/10/23 01:06:57;;;;;;;21.83;13.23;;;;;;;12.28;66.62;100311.48;1749020;81;21292;-77
2022/10/23 01:10:00;;;;;;;22.60;14.20;;;;;;;12.29;66.64;100310.41;1747327;81;21303;-76
2022/10/23 01:12:48;;;;;;;18.73;13.83;;;;;;;12.32;66.62;100313.08;1755172;81;21263;-77
2022/10/23 01:15:38;;;;;;;17.67;13.20;;;;;;;12.33;66.54;100306.09;1772795;80;21248;-76
2022/10/23 01:18:27;;;;;;;19.23;12.90;;;;;;;12.31;66.58;100304.79;1689425;83;21106;-76
2022/10/23 01:21:06;;;;;;;18.83;14.43;;;;;;;12.25;66.58;100309.36;1766242;80;21326;-75
2022/10/23 01:24:07;;;;;;;19.30;13.57;;;;;;;12.24;66.76;100297.56;1754115;81;21312;-75
2022/10/23 01:27:04;;;;;;;21.03;14.27;;;;;;;12.25;66.79;100295.17;1754540;80;21153;-75
2022/10/23 01:29:44;;;;;;;18.87;13.73;;;;;;;12.24;66.88;100285.00;1778286;80;21884;-74
2022/10/23 01:32:50;;;;;;;17.20;13.70;;;;;;;12.26;66.92;100280.16;1773029;80;21452;-74
2022/10/23 01:35:39;;;;;;;17.83;14.27;;;;;;;12.25;66.86;100283.12;1751621;81;21243;-74
2022/10/23 01:38:17;;;;;;;19.30;14.47;;;;;;;12.25;66.82;100283.12;1767143;80;21247;-73
2022/10/23 01:41:05;;;;;;;20.23;14.53;;;;;;;12.25;66.79;100277.22;1750593;80;21253;-75
2022/10/23 01:43:54;;;;;;;20.17;14.73;;;;;;;12.24;66.80;100268.11;1760707;81;21370;-75
2022/10/23 01:46:21;;;;;;;20.00;14.57;;;;;;;12.24;66.79;100268.11;1760045;81;21613;-75
2022/10/23 01:48:52;;;;;;;19.30;13.60;;;;;;;12.19;66.78;100264.38;1715665;81;21318;-75
2022/10/23 01:51:23;;;;;;;18.32;14.25;;;;;;;12.16;66.88;100266.27;1780885;80;21339;-75
2022/10/23 01:53:51;;;;;;;19.12;14.15;;;;;;;12.13;66.96;100260.66;1764169;80;21090;-76
2022/10/23 01:56:22;;;;;;;22.73;15.43;;;;;;;12.11;67.04;100270.84;1771799;80;21122;-76
2022/10/23 01:58:51;;;;;;;21.03;14.77;;;;;;;12.11;67.15;100261.47;1777765;80;21364;-76
2022/10/23 02:01:20;;;;;;;19.03;14.07;;;;;;;12.12;67.34;100257.73;1812895;78;21445;-76
2022/10/23 02:03:47;;;;;;;20.87;14.10;;;;;;;12.14;67.41;100260.41;1751109;80;21260;-74
2022/10/23 02:06:14;;;;;;;18.10;13.83;;;;;;;12.14;67.44;100259.58;1758505;80;21330;-74
2022/10/23 02:08:41;;;;;;;19.77;14.67;;;;;;;12.14;67.43;100259.07;1753849;80;21438;-74
2022/10/23 02:11:13;;;;;;;17.90;14.73;;;;;;;12.14;67.46;100256.39;1724529;81;21254;-74
2022/10/23 02:14:05;;;;;;;18.37;13.80;;;;;;;12.15;67.48;100256.64;1754977;81;21719;-74
2022/10/23 02:16:42;;;;;;;21.85;15.63;;;;;;;12.17;67.61;100261.71;1763537;80;21450;-75
2022/10/23 02:19:17;;;;;;;18.43;14.20;;;;;;;12.20;67.69;100261.96;1755534;81;21125;-75
2022/10/23 02:22:20;;;;;;;19.07;15.07;;;;;;;12.25;67.74;100266.52;1768689;80;21829;-76
2022/10/23 02:24:52;;;;;;;19.17;15.18;;;;;;;12.27;67.76;100268.36;1752866;80;21283;-75
2022/10/23 02:27:31;;;;;;;19.03;14.53;;;;;;;12.28;67.76;100268.64;1750463;81;21094;-75
2022/10/23 02:30:05;;;;;;;18.90;14.50;;;;;;;12.28;67.71;100267.30;1746264;80;21244;-74
2022/10/23 02:32:32;;;;;;;20.73;15.50;;;;;;;12.24;67.61;100272.95;1763990;80;21370;-75
2022/10/23 02:34:59;;;;;;;23.03;14.87;;;;;;;12.22;67.65;100267.06;1768752;80;21418;-74
2022/10/23 02:37:26;;;;;;;20.00;14.83;;;;;;;12.22;67.67;100269.73;1740998;80;21835;-75
2022/10/23 02:39:53;;;;;;;19.10;15.20;;;;;;;12.25;67.69;100267.05;1766659;80;21707;-74
2022/10/23 02:42:39;;;;;;;20.25;14.75;;;;;;;12.26;67.60;100268.64;1751911;80;22079;-74
2022/10/23 02:45:31;;;;;;;19.70;14.90;;;;;;;12.26;67.55;100267.31;1751739;81;21046;-74
2022/10/23 02:48:11;;;;;;;21.05;15.25;;;;;;;12.27;67.58;100264.34;1743995;81;21720;-73
2022/10/23 02:50:59;;;;;;;21.73;15.27;;;;;;;12.31;67.58;100267.30;1773268;80;21027;-73
2022/10/23 02:53:37;;;;;;;19.17;15.10;;;;;;;12.33;67.53;100268.60;1752561;81;21587;-74
2022/10/23 02:56:29;;;;;;;20.03;15.47;;;;;;;12.29;67.51;100263.54;1779381;80;21215;-74
2022/10/23 02:59:23;;;;;;;21.23;16.30;;;;;;;12.26;67.55;100267.31;1756439;80;21890;-73
2022/10/23 03:02:18;;;;;;;21.17;16.10;;;;;;;12.25;67.69;100265.17;1771919;80;21268;-72
2022/10/23 03:04:45;;;;;;;20.50;15.43;;;;;;;12.24;67.69;100259.56;1741803;80;22939;-74
2022/10/23 03:07:12;;;;;;;20.75;15.75;;;;;;;12.24;67.72;100263.58;1720843;81;21353;-73
2022/10/23 03:09:41;;;;;;;22.97;16.30;;;;;;;12.22;67.78;100256.34;1741099;81;21094;-73
2022/10/23 03:12:07;;;;;;;20.97;16.03;;;;;;;12.23;67.83;100263.30;1777511;80;21575;-74
2022/10/23 03:14:35;;;;;;;21.33;16.13;;;;;;;12.22;67.87;100256.89;1766323;80;21351;-73
2022/10/23 03:17:03;;;;;;;21.60;16.17;;;;;;;12.22;67.96;100256.89;1763676;80;21610;-73
2022/10/23 03:19:30;;;;;;;20.13;15.30;;;;;;;12.23;68.02;100257.14;1774223;80;21323;-73
2022/10/23 03:22:00;;;;;;;20.53;15.57;;;;;;;12.25;68.04;100255.00;1763358;80;21391;-73
2022/10/23 03:24:28;;;;;;;20.73;15.17;;;;;;;12.28;68.07;100255.80;1777077;80;21400;-73
2022/10/23 03:26:55;;;;;;;19.50;15.07;;;;;;;12.29;68.05;100255.51;1757869;80;21765;-73
2022/10/23 03:29:25;;;;;;;19.63;15.87;;;;;;;12.30;68.04;100257.09;1765379;80;21358;-73
2022/10/23 03:31:54;;;;;;;19.80;16.13;;;;;;;12.33;68.07;100255.20;1745941;81;21233;-73
2022/10/23 03:34:21;;;;;;;20.20;15.90;;;;;;;12.37;68.13;100253.61;1741671;81;21327;-73
2022/10/23 03:36:48;;;;;;;20.57;15.30;;;;;;;12.42;68.09;100256.24;1776834;80;21372;-73
2022/10/23 03:39:16;;;;;;;20.77;15.33;;;;;;;12.41;68.01;100247.95;1779032;80;21395;-73
2022/10/23 03:41:43;;;;;;;21.37;16.30;;;;;;;12.42;68.03;100242.84;1777248;80;21219;-73
2022/10/23 03:44:10;;;;;;;19.17;15.43;;;;;;;12.46;68.01;100247.11;1767787;80;21336;-75
2022/10/23 03:46:38;;;;;;;20.87;15.63;;;;;;;12.49;68.00;100239.06;1763717;80;21197;-75
2022/10/23 03:49:05;;;;;;;21.10;15.97;;;;;;;12.53;67.94;100242.78;1778968;80;21255;-74
2022/10/23 03:51:32;;;;;;;20.53;15.33;;;;;;;12.53;67.86;100241.45;1761118;79;21341;-73
2022/10/23 03:53:59;;;;;;;18.53;14.87;;;;;;;12.53;67.83;100244.13;1761648;80;21147;-74
2022/10/23 03:56:26;;;;;;;22.70;15.67;;;;;;;12.55;67.83;100239.30;1755339;80;21249;-74
2022/10/23 03:58:54;;;;;;;20.37;16.63;;;;;;;12.56;67.77;100238.21;1775950;80;21462;-74
2022/10/23 04:01:23;;;;;;;19.97;15.33;;;;;;;12.50;67.61;100244.67;1769398;80;21378;-74
2022/10/23 04:03:50;;;;;;;20.60;15.37;;;;;;;12.44;67.73;100238.03;1769739;80;21550;-74
2022/10/23 04:06:17;;;;;;;20.93;16.20;;;;;;;12.46;67.82;100240.95;1764384;79;21314;-73
2022/10/23 04:08:44;;;;;;;21.87;16.43;;;;;;;12.47;67.87;100237.19;1765985;80;21714;-74
2022/10/23 04:11:14;;;;;;;22.13;16.77;;;;;;;12.45;67.86;100237.48;1776597;80;21308;-75
2022/10/23 04:13:43;;;;;;;20.30;16.43;;;;;;;12.44;67.91;100238.03;1771041;80;21340;-75
2022/10/23 04:16:11;;;;;;;20.83;17.00;;;;;;;12.42;67.89;100238.83;1779395;80;21390;-74
2022/10/23 04:18:40;;;;;;;21.73;15.83;;;;;;;12.41;67.95;100239.92;1761045;79;21290;-75
2022/10/23 04:21:09;;;;;;;20.07;16.80;;;;;;;12.41;67.95;100238.58;1772886;80;21283;-75
2022/10/23 04:23:38;;;;;;;20.57;16.90;;;;;;;12.39;67.91;100235.36;1768143;80;21310;-74
2022/10/23 04:26:05;;;;;;;21.53;16.83;;;;;;;12.34;67.95;100239.42;1767369;80;21263;-74
2022/10/23 04:28:32;;;;;;;23.40;16.63;;;;;;;12.30;68.00;100239.69;1748749;81;22381;-74
2022/10/23 04:30:59;;;;;;;19.40;16.00;;;;;;;12.29;68.13;100232.74;1761097;81;21294;-74
2022/10/23 04:33:26;;;;;;;21.77;16.43;;;;;;;12.30;68.12;100238.35;1761190;80;21649;-75
2022/10/23 04:35:52;;;;;;;23.50;16.33;;;;;;;12.29;68.17;100240.77;1768375;80;21341;-75
2022/10/23 04:38:19;;;;;;;21.40;17.07;;;;;;;12.34;68.24;100235.41;1756688;79;21856;-74
2022/10/23 04:40:46;;;;;;;23.67;17.17;;;;;;;12.36;68.20;100229.77;1775909;80;21329;-75
2022/10/23 04:43:14;;;;;;;21.93;16.93;;;;;;;12.37;68.25;100232.18;1737354;81;21574;-75
2022/10/23 04:45:42;;;;;;;22.63;16.67;;;;;;;12.41;68.26;100229.75;1776188;80;21313;-75
2022/10/23 04:48:10;;;;;;;21.53;16.73;;;;;;;12.41;68.17;100234.56;1713643;81;21773;-75
2022/10/23 04:51:03;;;;;;;22.30;17.10;;;;;;;12.42;68.15;100234.02;1748697;80;21789;-75
2022/10/23 04:53:49;;;;;;;20.73;16.77;;;;;;;12.43;68.10;100232.39;1762316;80;21144;-75
2022/10/23 04:56:22;;;;;;;19.93;16.73;;;;;;;12.44;68.04;100236.69;1749959;81;21178;-75
2022/10/23 04:58:51;;;;;;;22.60;16.97;;;;;;;12.46;68.09;100233.72;1750921;81;21133;-74
2022/10/23 05:01:18;;;;;;;23.30;17.23;;;;;;;12.48;68.07;100232.12;1748582;80;21221;-74
2022/10/23 05:03:46;;;;;;;21.20;17.30;;;;;;;12.51;68.10;100233.70;1748309;81;21238;-74
2022/10/23 05:06:13;;;;;;;21.63;17.60;;;;;;;12.51;68.00;100232.91;1754326;81;21245;-75
2022/10/23 05:08:42;;;;;;;23.57;18.97;;;;;;;12.49;68.04;100233.16;1754822;81;21088;-75
2022/10/23 05:11:15;;;;;;;21.57;17.93;;;;;;;12.51;68.11;100227.00;1764206;81;21205;-74
2022/10/23 05:13:45;;;;;;;22.60;17.83;;;;;;;12.53;68.08;100230.19;1752247;81;21675;-74
2022/10/23 05:16:15;;;;;;;23.30;16.80;;;;;;;12.53;68.07;100225.38;1750983;81;21311;-75
2022/10/23 05:18:45;;;;;;;21.00;17.50;;;;;;;12.53;68.08;100225.38;1763427;80;21316;-75
2022/10/23 05:21:17;;;;;;;23.23;17.53;;;;;;;12.53;68.10;100222.69;1727720;83;21258;-75
2022/10/23 05:23:46;;;;;;;23.73;17.40;;;;;;;12.56;68.06;100224.82;1748398;81;22440;-75
2022/10/23 05:26:13;;;;;;;21.73;16.77;;;;;;;12.52;68.00;100227.80;1757858;81;21319;-75
2022/10/23 05:28:43;;;;;;;20.17;17.77;;;;;;;12.49;68.15;100227.80;1757933;81;21327;-74
2022/10/23 05:31:12;;;;;;;22.57;18.00;;;;;;;12.51;68.26;100226.20;1762543;80;21239;-73
2022/10/23 05:33:42;;;;;;;22.03;18.67;;;;;;;12.56;68.29;100228.84;1753529;80;21473;-74
2022/10/23 05:36:11;;;;;;;22.70;18.60;;;;;;;12.60;68.21;100231.21;1760523;80;21331;-74
2022/10/23 05:38:42;;;;;;;23.77;18.10;;;;;;;12.59;68.19;100234.44;1742054;80;21210;-74
2022/10/23 05:41:11;;;;;;;21.93;17.07;;;;;;;12.57;68.17;100230.42;1774165;79;21281;-74
2022/10/23 05:43:37;;;;;;;23.00;18.00;;;;;;;12.57;68.24;100229.09;1772952;80;21604;-75
2022/10/23 05:46:14;;;;;;;19.30;15.97;;;;;;;12.60;68.25;100233.37;1699460;81;21429;-75
2022/10/23 05:48:50;;;;;;;22.10;17.60;;;;;;;12.59;68.20;100235.78;1769715;80;21898;-74
2022/10/23 05:51:21;;;;;;;22.43;16.93;;;;;;;12.55;68.24;100243.32;1725837;81;21326;-74
2022/10/23 05:53:53;;;;;;;22.20;18.40;;;;;;;12.55;68.33;100244.66;1748901;80;21328;-74
2022/10/23 05:56:31;;;;;;;20.27;17.43;;;;;;;12.55;68.42;100248.67;1745734;80;21320;-74
2022/10/23 05:59:02;;;;;;;23.12;17.62;;;;;;;12.57;68.53;100247.84;1761787;80;21222;-75
2022/10/23 06:01:46;;;;;;;23.83;18.83;;;;;;;12.58;68.57;100248.92;1747494;81;20982;-75
2022/10/23 06:04:14;;;;;;;23.03;18.23;;;;;;;12.64;68.55;100238.98;1772090;79;21769;-75
2022/10/23 06:07:03;;;;;;;20.10;17.40;;;;;;;12.69;68.62;100244.28;1769975;79;21244;-74
2022/10/23 06:09:29;;;;;;;20.87;17.93;;;;;;;12.76;68.61;100233.25;1778077;79;22802;-75
2022/10/23 06:11:58;;;;;;;22.07;18.27;;;;;;;12.82;68.62;100231.59;1750442;80;21355;-75
2022/10/23 06:14:25;;;;;;;21.43;17.33;;;;;;;12.89;68.59;100229.94;1722945;80;21311;-75
2022/10/23 06:16:55;;;;;;;22.30;17.47;;;;;;;12.94;68.56;100239.30;1741916;81;21284;-75
2022/10/23 06:19:23;;;;;;;19.70;17.23;;;;;;;13.00;68.46;100245.42;1750566;81;21408;-73
2022/10/23 06:21:53;;;;;;;21.23;17.30;;;;;;;13.01;68.38;100241.66;1741538;80;21032;-74
2022/10/23 06:24:21;;;;;;;21.13;17.13;;;;;;;13.02;68.27;100236.55;1756125;80;21299;-74
2022/10/23 06:26:50;;;;;;;20.77;16.80;;;;;;;13.03;68.25;100242.16;1787260;80;21211;-75
2022/10/23 06:29:18;;;;;;;20.87;16.87;;;;;;;13.03;68.20;100240.81;1787204;80;21283;-74
2022/10/23 06:31:45;;;;;;;22.17;16.70;;;;;;;13.03;68.21;100240.30;1742602;81;21255;-74
2022/10/23 06:34:12;;;;;;;20.27;16.90;;;;;;;13.05;68.15;100234.64;1752754;80;21330;-74
2022/10/23 06:36:38;;;;;;;21.97;17.07;;;;;;;13.04;68.14;100241.89;1756535;80;21189;-76
2022/10/23 06:39:08;;;;;;;19.87;16.47;;;;;;;13.02;68.10;100237.88;1777086;80;21218;-75
2022/10/23 06:41:56;;;;;;;22.53;16.90;;;;;;;13.00;68.15;100232.02;1625997;86;21383;-74
2022/10/23 06:44:42;;;;;;;20.50;16.60;;;;;;;12.93;68.21;100234.20;1676041;83;21333;-73
2022/10/23 06:47:12;;;;;;;20.77;17.07;;;;;;;12.91;68.35;100229.92;1734356;79;21543;-76
2022/10/23 06:49:42;;;;;;;19.92;16.70;;;;;;;12.94;68.46;100225.09;1807362;77;21320;-73
2022/10/23 06:52:08;;;;;;;18.97;16.53;;;;;;;12.96;68.47;100227.73;1828226;77;21003;-75
2022/10/23 06:54:36;;;;;;;20.30;16.63;;;;;;;12.99;68.53;100221.02;1813962;78;21744;-76
2022/10/23 06:57:07;;;;;;;22.10;17.15;;;;;;;13.01;68.59;100218.87;1820621;78;21201;-74
2022/10/23 06:59:36;;;;;;;19.40;16.37;;;;;;;13.03;68.62;100228.75;1828848;78;21161;-75
2022/10/23 07:02:03;;;;;;;20.50;16.00;;;;;;;13.04;68.65;100223.67;1829890;78;21263;-73
2022/10/23 07:04:31;;;;;;;20.60;16.73;;;;;;;13.04;68.72;100227.14;1755650;81;22198;-76
2022/10/23 07:06:58;;;;;;;20.20;16.23;;;;;;;13.06;68.82;100218.80;1757276;81;21247;-75
2022/10/23 07:09:27;;;;;;;19.57;16.43;;;;;;;13.11;68.89;100222.80;1733726;81;21255;-75
2022/10/23 07:11:57;;;;;;;18.57;15.73;;;;;;;13.13;68.86;100228.14;1784450;80;21223;-75
2022/10/23 07:14:31;;;;;;;19.30;14.90;;;;;;;13.17;68.87;100225.70;1754653;80;21626;-74
2022/10/23 07:16:58;;;;;;;18.00;15.07;;;;;;;13.20;68.80;100226.48;1789323;80;21941;-74
2022/10/23 07:19:27;;;;;;;18.40;15.27;;;;;;;13.14;68.79;100233.76;1758043;80;20972;-75
2022/10/23 07:21:58;;;;;;;;;;;;;;;13.14;68.94;100228.94;1759035;81;21349;-75
2022/10/23 07:24:37;;;;;;;17.43;14.73;;;;;;;13.14;68.96;100223.58;1757178;80;21511;-75
2022/10/23 07:27:06;;;;;;;18.40;15.33;;;;;;;13.15;69.06;100225.16;1789078;80;21222;-75
2022/10/23 07:29:34;;;;;;;17.60;14.27;;;;;;;13.21;69.08;100227.27;1737802;81;21169;-75
2022/10/23 07:32:05;;;;;;;19.40;14.20;;;;;;;13.20;69.06;100231.84;1758328;80;21237;-75
2022/10/23 07:34:35;;;;;;;17.43;14.50;;;;;;;13.12;69.04;100233.23;1768524;80;21256;-75
2022/10/23 07:37:13;;;;;;;16.67;13.63;;;;;;;13.05;69.22;100230.08;1752347;80;21263;-76
2022/10/23 07:39:40;;;;;;;18.07;15.17;;;;;;;13.03;69.40;100226.06;1734213;80;21315;-75
2022/10/23 07:42:07;;;;;;;17.00;14.77;;;;;;;13.03;69.54;100223.39;1757379;81;21305;-75
2022/10/23 07:44:34;;;;;;;19.00;15.20;;;;;;;13.05;69.61;100230.63;1720462;80;21839;-75
2022/10/23 07:47:02;;;;;;;16.43;14.07;;;;;;;13.06;69.72;100224.17;1787938;80;21241;-76
2022/10/23 07:49:29;;;;;;;17.73;14.93;;;;;;;13.08;69.78;100224.70;1757949;80;21213;-74
2022/10/23 07:51:57;;;;;;;16.97;14.17;;;;;;;13.07;69.81;100224.45;1787896;78;21159;-74
2022/10/23 07:54:26;;;;;;;16.53;12.40;;;;;;;13.09;69.98;100221.72;1789024;80;21183;-74
2022/10/23 07:57:14;;;;;;;17.33;14.63;;;;;;;13.09;69.98;100216.91;1787963;80;21153;-75
2022/10/23 07:59:48;;;;;;;18.57;15.83;;;;;;;13.07;70.11;100212.38;1787535;78;21186;-75
2022/10/23 08:02:17;;;;;;;17.53;13.90;;;;;;;13.12;70.29;100213.11;1789063;80;21816;-74
2022/10/23 08:04:49;;;;;;;18.80;15.07;;;;;;;13.20;70.43;100216.30;1789171;80;21217;-74
2022/10/23 08:07:20;;;;;;;18.30;14.40;;;;;;;13.22;70.41;100209.55;1786481;80;21321;-75
2022/10/23 08:09:47;;;;;;;16.50;13.33;;;;;;;13.22;70.41;100219.48;1789148;80;21148;-74
2022/10/23 08:12:14;;;;;;;19.17;14.83;;;;;;;13.21;70.48;100216.55;1789330;80;21382;-75
2022/10/23 08:14:43;;;;;;;18.83;15.07;;;;;;;13.21;70.52;100214.66;1778877;78;21238;-74
2022/10/23 08:17:10;;;;;;;19.37;14.50;;;;;;;13.24;70.64;100219.48;1787824;78;21259;-75
2022/10/23 08:19:45;;;;;;;19.17;15.28;;;;;;;13.23;70.62;100217.87;1782966;78;21292;-76
2022/10/23 08:22:12;;;;;;;19.73;15.10;;;;;;;13.24;70.74;100220.00;1789288;80;21003;-75
2022/10/23 08:24:38;;;;;;;20.60;15.57;;;;;;;13.27;70.80;100212.77;1784939;80;21359;-75
2022/10/23 08:27:05;;;;;;;17.63;13.90;;;;;;;13.32;70.88;100214.84;1756269;81;21162;-75
2022/10/23 08:29:35;;;;;;;21.63;16.77;;;;;;;13.35;70.87;100218.30;1726274;83;21089;-75
2022/10/23 08:32:02;;;;;;;18.80;15.47;;;;;;;13.36;70.99;100213.20;1756277;81;21286;-76
2022/10/23 08:34:31;;;;;;;20.40;15.07;;;;;;;13.41;71.02;100220.39;1756650;81;21344;-75
2022/10/23 08:36:58;;;;;;;20.47;15.33;;;;;;;13.38;71.14;100222.30;1751954;82;21192;-76
2022/10/23 08:39:25;;;;;;;19.97;15.30;;;;;;;13.38;71.28;100229.80;1751284;82;21632;-75
2022/10/23 08:42:23;;;;;;;22.50;16.63;;;;;;;13.40;71.40;100231.42;1767069;79;21338;-75
2022/10/23 08:45:07;;;;;;;18.90;13.50;;;;;;;13.41;71.54;100232.47;1783188;79;21189;-75
2022/10/23 08:47:48;;;;;;;17.53;14.70;;;;;;;13.45;71.66;100232.16;1736846;80;21304;-76
2022/10/23 08:50:37;;;;;;;17.57;14.17;;;;;;;13.48;71.69;100240.98;1757807;80;21297;-75
2022/10/23 08:53:15;;;;;;;19.77;14.57;;;;;;;13.47;71.76;100238.05;1758155;80;21674;-76
2022/10/23 08:56:03;;;;;;;18.87;15.00;;;;;;;13.48;71.94;100245.55;1757722;80;21851;-75
2022/10/23 08:58:52;;;;;;;21.00;15.63;;;;;;;13.52;72.09;100244.72;1758128;81;21336;-75
2022/10/23 09:01:44;;;;;;;20.47;14.43;;;;;;;13.52;72.28;100254.11;1758047;81;21259;-74
2022/10/23 09:04:13;;;;;;;22.95;16.45;;;;;;;13.55;72.48;100248.69;1788545;80;21121;-74
2022/10/23 09:07:00;;;;;;;21.07;15.63;;;;;;;13.63;72.65;100250.77;1756754;81;21110;-75
2022/10/23 09:09:46;;;;;;;21.40;15.00;;;;;;;13.71;72.67;100249.34;1788944;80;21228;-75
2022/10/23 09:12:16;;;;;;;20.20;14.77;;;;;;;13.75;72.71;100249.02;1757012;81;21274;-75
2022/10/23 09:15:05;;;;;;;20.50;14.90;;;;;;;13.79;72.65;100247.38;1757606;81;21425;-76
2022/10/23 09:17:34;;;;;;;25.17;17.30;;;;;;;13.77;72.68;100247.66;1788061;79;21312;-75
2022/10/23 09:20:25;;;;;;;22.10;15.00;;;;;;;13.75;72.80;100243.64;1755463;80;21870;-76
2022/10/23 09:23:16;;;;;;;22.17;15.60;;;;;;;13.78;72.90;100244.42;1758220;81;21301;-75
2022/10/23 09:25:43;;;;;;;23.20;15.98;;;;;;;13.81;72.93;100246.53;1788863;80;21363;-74
2022/10/23 09:28:24;;;;;;;21.87;14.87;;;;;;;13.86;72.94;100245.15;1788693;78;21015;-75
2022/10/23 09:30:54;;;;;;;21.03;14.27;;;;;;;13.92;72.95;100242.67;1787847;80;21232;-75
2022/10/23 09:33:26;;;;;;;21.27;15.43;;;;;;;13.99;72.90;100242.32;1788568;78;21282;-75
2022/10/23 09:36:00;;;;;;;22.53;15.17;;;;;;;14.01;72.85;100242.81;1789162;80;21256;-76
2022/10/23 09:38:38;;;;;;;22.87;17.10;;;;;;;14.07;73.07;100245.70;1787732;78;21290;-76
2022/10/23 09:41:24;;;;;;;19.27;13.43;;;;;;;14.07;73.07;100245.70;1788234;78;21346;-74
2022/10/23 09:44:23;;;;;;;21.07;14.77;;;;;;;14.11;72.75;100242.69;1788487;80;21245;-74
2022/10/23 09:47:10;;;;;;;20.57;14.57;;;;;;;14.17;72.80;100233.48;1757261;80;21324;-74
2022/10/23 09:49:40;;;;;;;20.37;15.27;;;;;;;14.23;72.71;100237.70;1757351;81;21454;-74
2022/10/23 09:52:16;;;;;;;22.83;16.60;;;;;;;14.30;72.62;100239.48;1759084;80;21332;-74
2022/10/23 09:54:52;;;;;;;19.40;14.57;;;;;;;14.33;72.47;100241.34;1736489;80;21251;-74
2022/10/23 09:57:30;;;;;;;23.27;15.73;;;;;;;14.34;72.45;100233.53;1757737;81;21490;-74
2022/10/23 10:00:15;;;;;;;23.37;16.03;;;;;;;14.35;72.40;100238.62;1789684;80;21306;-74
2022/10/23 10:02:54;;;;;;;22.53;15.33;;;;;;;14.37;72.39;100234.30;1759293;80;21341;-74
2022/10/23 10:05:40;;;;;;;19.77;15.30;;;;;;;14.39;72.35;100234.27;1704098;81;21356;-74
2022/10/23 10:08:43;;;;;;;23.43;15.30;;;;;;;14.37;72.29;100234.30;1766463;79;21332;-74
2022/10/23 10:11:18;;;;;;;20.67;14.90;;;;;;;14.33;72.36;100227.91;1761326;81;21285;-74
2022/10/23 10:14:14;;;;;;;23.23;16.90;;;;;;;14.32;72.41;100228.46;1763263;78;21150;-74
2022/10/23 10:17:03;;;;;;;23.40;15.67;;;;;;;14.32;72.41;100228.46;1792389;80;21878;-74
2022/10/23 10:19:55;;;;;;;19.47;14.73;;;;;;;14.34;72.63;100229.50;1761657;81;22564;-75
2022/10/23 10:22:48;;;;;;;20.47;14.37;;;;;;;14.35;72.41;100223.06;1761418;81;21759;-74
2022/10/23 10:25:47;;;;;;;20.33;14.10;;;;;;;14.35;72.41;100223.06;1791946;80;21380;-73
2022/10/23 10:28:40;;;;;;;18.43;13.57;;;;;;;14.34;72.75;100220.09;1761472;81;21270;-74
2022/10/23 10:31:38;;;;;;;22.30;15.60;;;;;;;14.36;72.90;100215.24;1736558;81;21326;-74
2022/10/23 10:34:25;;;;;;;20.40;14.37;;;;;;;14.40;72.93;100217.05;1759152;81;21900;-75
2022/10/23 10:37:04;;;;;;;17.17;13.07;;;;;;;14.40;72.93;100217.05;1730230;80;21480;-73
2022/10/23 10:40:18;;;;;;;20.83;14.30;;;;;;;14.48;72.67;100215.61;1758501;81;21402;-74
2022/10/23 10:43:11;;;;;;;21.90;14.33;;;;;;;14.48;72.67;100215.61;1761036;81;21418;-74
2022/10/23 10:45:42;;;;;;;19.37;14.17;;;;;;;14.60;72.41;100211.16;1785283;80;21774;-74
2022/10/23 10:48:33;;;;;;;20.43;15.30;;;;;;;14.64;72.66;100206.78;1693119;83;21462;-76
2022/10/23 10:51:31;;;;;;;19.00;13.72;;;;;;;14.64;72.66;100206.78;1734765;82;21521;-75
2022/10/23 10:54:08;;;;;;;18.40;13.70;;;;;;;14.69;72.37;100210.20;1753257;80;21023;-74
2022/10/23 10:56:39;;;;;;;19.07;14.43;;;;;;;14.70;72.23;100209.10;1758245;80;21447;-74
2022/10/23 10:59:20;;;;;;;17.67;13.70;;;;;;;14.70;72.23;100209.10;1792392;80;21355;-74
2022/10/23 11:02:09;;;;;;;18.33;13.90;;;;;;;14.66;72.26;100204.06;1715391;83;21878;-74
2022/10/23 11:04:44;;;;;;;17.67;13.37;;;;;;;14.66;72.26;100204.06;1728157;83;21429;-75
2022/10/23 11:07:13;;;;;;;20.30;14.90;;;;;;;14.68;72.35;100207.27;1756063;81;21375;-75
2022/10/23 11:09:39;;;;;;;20.67;13.90;;;;;;;14.67;72.41;100207.00;1789446;80;21461;-74
2022/10/23 11:12:06;;;;;;;20.53;15.40;;;;;;;14.64;72.52;100206.27;1788581;80;21470;-75
2022/10/23 11:14:33;;;;;;;19.10;14.63;;;;;;;14.64;72.71;100198.20;1727262;81;21511;-74
2022/10/23 11:17:19;;;;;;;17.97;14.53;;;;;;;14.66;72.61;100196.00;1727185;81;21538;-75
2022/10/23 11:20:09;;;;;;;19.80;14.17;;;;;;;14.66;73.10;100196.55;1788458;80;21456;-75
2022/10/23 11:22:39;;;;;;;18.33;14.63;;;;;;;14.66;73.10;100196.55;1756469;81;21538;-73
2022/10/23 11:25:46;;;;;;;17.27;13.53;;;;;;;14.73;73.24;100199.11;1755183;81;21394;-74
2022/10/23 11:28:53;;;;;;;15.33;11.73;;;;;;;14.71;73.51;100191.11;1788521;80;21503;-73
2022/10/23 11:31:46;;;;;;;18.70;14.43;;;;;;;14.71;73.51;100191.11;1770422;80;21416;-74
2022/10/23 11:34:54;;;;;;;19.57;14.33;;;;;;;14.69;73.27;100198.11;1757517;81;21574;-73
2022/10/23 11:37:20;;;;;;;19.33;14.40;;;;;;;14.69;73.39;100202.14;1752136;81;21559;-73
2022/10/23 11:40:08;;;;;;;15.77;11.60;;;;;;;14.69;73.51;100200.80;1789020;80;21354;-74
2022/10/23 11:42:44;;;;;;;18.30;13.53;;;;;;;14.68;73.70;100202.45;1758931;81;21435;-75
2022/10/23 11:45:38;;;;;;;15.27;12.30;;;;;;;14.76;74.05;100205.25;1758332;81;21416;-75